Time;durP1;ratioP1;P1;durP2;ratioP2;P2;SDS_P1;SDS_P2;PMS_P1;PMS_P2;Temp;Humidity;BMP_temperature;BMP_pressure;BME280_temperature;BME280_humidity;BME280_pressure;Samples;Min_cycle;Max_cycle;Signal;HPM_P1;HPM_P2
2022/10/24 00:00:42;;;;;;;7.57;2.33;;;;;;;13.74;100.00;100390.81;5052504;28;20059;-85
2022/10/24 00:03:12;;;;;;;2.67;2.15;;;;;;;13.77;100.00;100379.28;5094962;28;20638;-85
2022/10/24 00:05:46;;;;;;;6.50;3.13;;;;;;;13.77;100.00;100374.84;5078491;28;20048;-86
2022/10/24 00:08:16;;;;;;;9.63;2.50;;;;;;;13.79;100.00;100362.47;5080252;28;20059;-85
2022/10/24 00:10:46;;;;;;;5.72;2.40;;;;;;;13.81;100.00;100365.97;5074439;28;20044;-85
2022/10/24 00:13:16;;;;;;;3.38;1.80;;;;;;;13.82;100.00;100357.13;5071748;28;20448;-85
2022/10/24 00:15:48;;;;;;;9.33;2.23;;;;;;;13.85;100.00;100374.72;5064169;28;20056;-85
2022/10/24 00:18:16;;;;;;;8.90;2.47;;;;;;;13.87;100.00;100359.69;5082448;28;20040;-86
2022/10/24 00:20:45;;;;;;;7.30;2.05;;;;;;;13.89;100.00;100365.81;5057259;28;20061;-85
2022/10/24 00:23:16;;;;;;;3.78;1.90;;;;;;;13.91;100.00;100360.50;5066242;28;20050;-85
2022/10/24 00:25:44;;;;;;;4.00;1.90;;;;;;;13.93;100.00;100358.69;5080075;28;20047;-86
2022/10/24 00:28:13;;;;;;;7.32;2.20;;;;;;;13.95;100.00;100370.13;5074935;28;20031;-84
2022/10/24 00:30:41;;;;;;;5.40;1.95;;;;;;;13.95;100.00;100370.13;5099318;28;20040;-85
2022/10/24 00:33:09;;;;;;;6.25;1.88;;;;;;;13.96;100.00;100364.81;5087317;28;20141;-85
2022/10/24 00:35:41;;;;;;;4.13;1.73;;;;;;;13.96;100.00;100364.81;5067855;28;20055;-85
2022/10/24 00:38:09;;;;;;;6.15;2.00;;;;;;;13.97;100.00;100355.06;5084623;28;20173;-85
2022/10/24 00:40:37;;;;;;;5.63;1.95;;;;;;;13.98;100.00;100357.69;5048891;28;20066;-85
2022/10/24 00:43:17;;;;;;;3.33;1.83;;;;;;;13.98;100.00;100357.69;5046641;28;20035;-85
2022/10/24 00:45:49;;;;;;;5.03;1.80;;;;;;;13.96;100.00;100351.56;5100210;28;20055;-86
2022/10/24 00:48:42;;;;;;;7.47;2.00;;;;;;;13.97;100.00;100357.72;5090213;27;20062;-85
2022/10/24 00:51:29;;;;;;;4.63;1.70;;;;;;;13.96;100.00;100364.81;5094455;28;20036;-85
2022/10/24 00:54:09;;;;;;;6.30;2.22;;;;;;;13.94;100.00;100358.66;5081007;28;20036;-85
2022/10/24 00:56:48;;;;;;;7.15;1.75;;;;;;;13.93;100.00;100364.00;5077142;28;20397;-85
2022/10/24 00:59:17;;;;;;;4.82;1.88;;;;;;;13.92;100.00;100363.13;5058735;28;20059;-85
2022/10/24 01:01:47;;;;;;;4.30;1.65;;;;;;;13.91;100.00;100349.91;5058207;28;20044;-85
2022/10/24 01:04:21;;;;;;;4.45;1.50;;;;;;;13.90;100.00;100354.34;5081040;28;20524;-86
2022/10/24 01:07:14;;;;;;;10.65;2.30;;;;;;;13.88;100.00;100356.13;5062912;28;20047;-86
2022/10/24 01:10:07;;;;;;;4.03;1.60;;;;;;;13.87;100.00;100356.16;5057847;28;20048;-86
2022/10/24 01:13:06;;;;;;;5.47;1.70;;;;;;;13.86;100.00;100362.38;5070994;28;20032;-85
2022/10/24 01:15:57;;;;;;;4.95;1.77;;;;;;;13.83;100.00;100353.56;5067349;28;20055;-85
2022/10/24 01:18:32;;;;;;;3.25;1.67;;;;;;;13.83;100.00;100356.22;5090582;28;20051;-85
2022/10/24 01:21:30;;;;;;;2.20;1.75;;;;;;;13.83;100.00;100350.03;5089932;28;20547;-85
2022/10/24 01:24:14;;;;;;;3.58;1.48;;;;;;;13.80;100.00;100348.34;5064445;28;20059;-86
2022/10/24 01:26:55;;;;;;;5.15;1.50;;;;;;;13.78;100.00;100347.50;5089614;28;20036;-85
2022/10/24 01:29:48;;;;;;;3.88;1.40;;;;;;;13.76;100.00;100345.75;5063911;28;20058;-85
2022/10/24 01:32:25;;;;;;;2.50;1.75;;;;;;;13.73;100.00;100348.47;5093112;28;20051;-85
2022/10/24 01:35:12;;;;;;;8.05;1.85;;;;;;;13.70;100.00;100337.94;5085691;28;20051;-86
2022/10/24 01:38:03;;;;;;;5.10;1.73;;;;;;;13.66;100.00;100342.41;5085773;28;20036;-85
2022/10/24 01:40:38;;;;;;;2.53;1.67;;;;;;;13.64;100.00;100331.84;5074034;28;20472;-85
2022/10/24 01:43:10;;;;;;;5.18;1.70;;;;;;;13.64;100.00;100328.31;5076255;28;20420;-86
2022/10/24 01:45:43;;;;;;;2.70;1.58;;;;;;;13.62;100.00;100333.63;5100112;28;20476;-85
2022/10/24 01:48:17;;;;;;;6.32;2.33;;;;;;;13.62;100.00;100327.47;5080170;28;20043;-86
2022/10/24 01:50:50;;;;;;;4.80;1.83;;;;;;;13.62;100.00;100325.69;5040873;28;20036;-85
2022/10/24 01:53:21;;;;;;;4.35;1.60;;;;;;;13.60;100.00;100316.03;5092782;28;20130;-85
2022/10/24 01:55:53;;;;;;;4.38;1.70;;;;;;;13.59;100.00;100306.34;5074906;28;20607;-86
2022/10/24 01:58:22;;;;;;;5.30;2.20;;;;;;;13.59;100.00;100311.63;5054591;28;20043;-85
2022/10/24 02:00:56;;;;;;;5.03;1.90;;;;;;;13.58;100.00;100307.25;5056646;28;20393;-86
2022/10/24 02:03:35;;;;;;;3.53;1.92;;;;;;;13.56;100.00;100299.34;5071985;28;20048;-85
2022/10/24 02:06:17;;;;;;;3.37;1.77;;;;;;;13.54;100.00;100306.44;5090054;28;20047;-85
2022/10/24 02:08:51;;;;;;;5.40;2.28;;;;;;;13.56;100.00;100295.81;5101012;28;20647;-85
2022/10/24 02:11:19;;;;;;;5.05;1.90;;;;;;;13.55;100.00;100284.34;5099661;28;20051;-86
2022/10/24 02:14:15;;;;;;;2.90;1.70;;;;;;;13.56;100.00;100291.41;5077713;28;20408;-86
2022/10/24 02:16:44;;;;;;;4.10;2.15;;;;;;;13.58;100.00;100291.38;5064556;28;20527;-86
2022/10/24 02:19:14;;;;;;;3.40;1.60;;;;;;;13.60;100.00;100286.91;5031847;28;20573;-85
2022/10/24 02:22:40;;;;;;;7.55;2.20;;;;;;;13.63;100.00;100273.63;5058537;28;20297;-86
2022/10/24 02:25:20;;;;;;;2.90;1.60;;;;;;;13.66;100.00;100281.50;5049774;28;20047;-85
2022/10/24 02:28:13;;;;;;;4.28;1.75;;;;;;;13.71;100.00;100273.50;5098416;27;20044;-86
2022/10/24 02:30:59;;;;;;;2.65;1.50;;;;;;;13.74;100.00;100262.81;5085331;28;20036;-86
2022/10/24 02:33:30;;;;;;;7.15;1.85;;;;;;;13.78;100.00;100256.56;5081421;28;20047;-85
2022/10/24 02:36:00;;;;;;;4.35;1.92;;;;;;;13.82;100.00;100252.97;5061539;27;20055;-85
2022/10/24 02:38:36;;;;;;;5.53;2.72;;;;;;;13.84;100.00;100248.53;5085882;28;20036;-85
2022/10/24 02:41:11;;;;;;;4.53;1.80;;;;;;;13.87;100.00;100252.88;5086450;28;20048;-85
2022/10/24 02:43:43;;;;;;;4.65;1.80;;;;;;;13.89;100.00;100248.41;5050526;28;20044;-86
2022/10/24 02:46:13;;;;;;;5.00;2.03;;;;;;;13.90;100.00;100245.75;5071727;28;20354;-85
2022/10/24 02:48:44;;;;;;;;;;;;;;;13.92;100.00;100243.06;5052806;28;20055;-85
2022/10/24 02:51:14;;;;;;;;;;;;;;;13.91;100.00;100247.47;5072204;28;19920;-86
2022/10/24 02:53:43;;;;;;;11.77;2.50;;;;;;;13.91;100.00;100239.53;5106804;28;19920;-85
2022/10/24 02:56:12;;;;;;;9.02;2.80;;;;;;;13.93;100.00;100232.44;5032373;28;20737;-86
2022/10/24 02:58:41;;;;;;;8.98;2.60;;;;;;;13.94;100.00;100225.38;5058327;28;20043;-86
2022/10/24 03:01:09;;;;;;;11.63;2.92;;;;;;;13.95;100.00;100217.41;5078960;28;20039;-85
2022/10/24 03:03:38;;;;;;;5.60;2.28;;;;;;;13.96;100.00;100232.38;5043001;28;20515;-85
2022/10/24 03:06:06;;;;;;;7.18;2.17;;;;;;;13.98;100.00;100213.78;5065887;28;20032;-85
2022/10/24 03:08:35;;;;;;;9.27;2.63;;;;;;;13.99;100.00;100215.56;5065033;28;20043;-85
2022/10/24 03:11:05;;;;;;;8.18;2.80;;;;;;;14.01;100.00;100221.69;5065276;28;20047;-85
2022/10/24 03:13:33;;;;;;;6.68;2.08;;;;;;;14.01;100.00;100217.25;5099147;28;20406;-85
2022/10/24 03:16:03;;;;;;;7.00;2.30;;;;;;;14.02;100.00;100204.88;5087015;28;20063;-85
2022/10/24 03:18:36;;;;;;;7.22;2.35;;;;;;;14.04;100.00;100208.38;5052765;28;20051;-85
2022/10/24 03:21:05;;;;;;;11.10;3.03;;;;;;;14.04;100.00;100201.31;5080274;28;20047;-85
2022/10/24 03:23:34;;;;;;;8.18;2.30;;;;;;;14.07;100.00;100204.78;5053163;28;20048;-85
2022/10/24 03:26:02;;;;;;;9.07;2.38;;;;;;;14.07;100.00;100196.84;5065120;28;20070;-86
2022/10/24 03:28:31;;;;;;;4.72;2.53;;;;;;;14.07;100.00;100196.84;5083599;28;20039;-86
2022/10/24 03:30:59;;;;;;;4.82;2.00;;;;;;;14.08;100.00;100195.94;5066246;28;20067;-86
2022/10/24 03:33:28;;;;;;;7.90;2.50;;;;;;;14.10;100.00;100197.66;5070036;28;20036;-86
2022/10/24 03:35:56;;;;;;;6.78;2.92;;;;;;;14.12;100.00;100190.53;5077553;28;20044;-86
2022/10/24 03:38:25;;;;;;;5.85;2.63;;;;;;;14.13;100.00;100194.91;5086980;28;20048;-86
2022/10/24 03:40:54;;;;;;;15.20;3.03;;;;;;;14.16;100.00;100188.69;5095301;28;20166;-86
2022/10/24 03:43:24;;;;;;;7.25;2.40;;;;;;;14.18;100.00;100179.81;5070058;28;20070;-86
2022/10/24 03:45:52;;;;;;;6.63;2.30;;;;;;;14.19;100.00;100184.19;5061773;28;20043;-85
2022/10/24 03:48:20;;;;;;;7.68;1.95;;;;;;;14.24;100.00;100194.69;5049917;28;20412;-85
2022/10/24 03:50:49;;;;;;;8.52;2.42;;;;;;;14.28;100.00;100190.19;5079074;28;20052;-85
2022/10/24 03:53:17;;;;;;;4.97;2.20;;;;;;;14.29;100.00;100195.47;5049536;28;20039;-86
2022/10/24 03:55:46;;;;;;;8.30;2.53;;;;;;;14.32;100.00;100198.03;5077197;28;20024;-85
2022/10/24 03:58:15;;;;;;;12.35;2.67;;;;;;;14.35;100.00;100199.75;5062314;28;20048;-86
2022/10/24 04:00:43;;;;;;;6.47;3.00;;;;;;;14.36;100.00;100194.41;5079254;28;20052;-86
2022/10/24 04:03:16;;;;;;;7.38;2.40;;;;;;;14.37;100.00;100196.16;5036326;28;20268;-86
2022/10/24 04:05:44;;;;;;;6.13;2.03;;;;;;;14.39;100.00;100202.28;5087540;28;20381;-86
2022/10/24 04:08:13;;;;;;;3.45;2.25;;;;;;;14.41;100.00;100194.31;5072347;28;20044;-85
2022/10/24 04:10:41;;;;;;;5.20;2.15;;;;;;;14.41;100.00;100187.22;5080170;28;20040;-86
2022/10/24 04:13:10;;;;;;;8.73;2.50;;;;;;;14.42;100.00;100194.28;5111858;28;20047;-85
2022/10/24 04:15:38;;;;;;;8.27;2.60;;;;;;;14.42;100.00;100196.94;5061889;28;20028;-86
2022/10/24 04:18:07;;;;;;;5.55;2.58;;;;;;;14.43;100.00;100203.97;5054813;28;20059;-86
2022/10/24 04:20:35;;;;;;;5.13;2.38;;;;;;;14.42;100.00;100204.88;5048532;28;20048;-86
2022/10/24 04:23:04;;;;;;;11.32;2.50;;;;;;;14.43;100.00;100203.97;5050505;28;20069;-85
2022/10/24 04:25:39;;;;;;;5.68;2.13;;;;;;;14.43;100.00;100200.44;5090649;28;20040;-85
2022/10/24 04:28:07;;;;;;;6.25;2.13;;;;;;;14.44;100.00;100204.81;5086438;28;20040;-85
2022/10/24 04:30:36;;;;;;;3.90;2.40;;;;;;;14.42;100.00;100204.88;5067321;28;20055;-86
2022/10/24 04:33:05;;;;;;;6.45;2.30;;;;;;;14.39;100.00;100194.34;5073987;28;20356;-85
2022/10/24 04:35:33;;;;;;;6.72;2.42;;;;;;;14.38;100.00;100197.88;5033880;28;20070;-86
2022/10/24 04:38:02;;;;;;;6.60;2.22;;;;;;;14.34;100.00;100198.00;5076176;28;20051;-85
2022/10/24 04:40:30;;;;;;;7.72;2.17;;;;;;;14.28;100.00;100191.06;5052591;28;20043;-85
2022/10/24 04:42:58;;;;;;;5.47;2.00;;;;;;;14.24;100.00;100190.25;5095836;28;20043;-85
2022/10/24 04:45:27;;;;;;;8.80;2.75;;;;;;;14.20;100.00;100187.72;5085198;28;20039;-85
2022/10/24 04:47:55;;;;;;;5.50;2.20;;;;;;;14.16;100.00;100189.56;5055529;27;20032;-86
2022/10/24 04:50:24;;;;;;;7.72;2.60;;;;;;;14.12;100.00;100195.84;5069644;28;20043;-85
2022/10/24 04:52:52;;;;;;;4.47;2.33;;;;;;;14.09;100.00;100190.59;5060671;28;20055;-86
2022/10/24 04:55:21;;;;;;;5.55;2.22;;;;;;;14.02;100.00;100179.25;5056353;28;20048;-85
2022/10/24 04:57:49;;;;;;;8.70;2.20;;;;;;;13.97;100.00;100186.44;5095960;28;20050;-86
2022/10/24 05:00:18;;;;;;;21.10;3.65;;;;;;;13.94;100.00;100193.59;5049404;28;20051;-86
2022/10/24 05:02:47;;;;;;;5.63;2.55;;;;;;;13.91;100.00;100183.91;5077825;27;20047;-85
2022/10/24 05:05:16;;;;;;;6.10;2.75;;;;;;;13.88;100.00;100186.63;5060553;28;20040;-86
2022/10/24 05:07:45;;;;;;;9.93;2.50;;;;;;;13.85;100.00;100186.69;5063555;28;20510;-86
2022/10/24 05:10:15;;;;;;;7.93;2.10;;;;;;;13.81;100.00;100185.00;5093802;27;20036;-86
2022/10/24 05:12:44;;;;;;;3.42;1.88;;;;;;;13.78;100.00;100185.06;5085477;28;20503;-85
2022/10/24 05:15:15;;;;;;;3.15;2.38;;;;;;;13.74;100.00;100183.38;5089667;28;20047;-85
2022/10/24 05:17:43;;;;;;;10.88;2.10;;;;;;;13.73;100.00;100179.00;5088235;28;20044;-86
2022/10/24 05:20:12;;;;;;;8.63;2.53;;;;;;;13.73;100.00;100186.97;5101495;27;20275;-86
2022/10/24 05:22:41;;;;;;;7.05;2.50;;;;;;;13.72;100.00;100182.56;5049286;28;20032;-85
2022/10/24 05:25:10;;;;;;;6.93;1.92;;;;;;;13.71;100.00;100181.69;5072718;28;20047;-84
2022/10/24 05:27:43;;;;;;;6.25;1.92;;;;;;;13.71;100.00;100180.81;5045363;27;20040;-83
2022/10/24 05:30:12;;;;;;;6.45;1.90;;;;;;;13.71;100.00;100188.78;5074820;28;20515;-84
2022/10/24 05:32:41;;;;;;;6.35;2.00;;;;;;;13.70;100.00;100184.38;5053071;28;20036;-84
2022/10/24 05:35:11;;;;;;;6.55;1.98;;;;;;;13.71;100.00;100199.34;5078729;28;20031;-82
2022/10/24 05:37:40;;;;;;;5.05;2.10;;;;;;;13.70;100.00;100177.28;5042095;28;20044;-83
2022/10/24 05:40:11;;;;;;;6.60;1.90;;;;;;;13.71;100.00;100188.78;5068459;28;20044;-84
2022/10/24 05:42:41;;;;;;;6.22;2.03;;;;;;;13.72;100.00;100190.50;5093497;28;20054;-83
2022/10/24 05:45:10;;;;;;;5.60;1.60;;;;;;;13.72;100.00;100185.19;5082185;28;20043;-83
2022/10/24 05:47:38;;;;;;;8.55;2.13;;;;;;;13.71;100.00;100181.69;5067180;28;20031;-83
2022/10/24 05:50:07;;;;;;;7.38;1.73;;;;;;;13.72;100.00;100178.13;5058441;28;20046;-84
2022/10/24 05:52:36;;;;;;;6.78;1.83;;;;;;;13.74;100.00;100180.75;5061491;28;20172;-84
2022/10/24 05:55:05;;;;;;;6.32;1.88;;;;;;;13.74;100.00;100180.75;5086325;28;20047;-84
2022/10/24 05:57:37;;;;;;;6.60;1.80;;;;;;;13.75;100.00;100179.84;5083223;28;20051;-84
2022/10/24 06:00:07;;;;;;;4.83;2.30;;;;;;;13.76;100.00;100181.59;5084799;28;20044;-84
2022/10/24 06:02:41;;;;;;;5.93;1.63;;;;;;;13.75;100.00;100185.16;5088080;28;20051;-84
2022/10/24 06:05:12;;;;;;;6.45;1.58;;;;;;;13.74;100.00;100181.63;5093843;28;20043;-84
2022/10/24 06:07:40;;;;;;;9.23;1.77;;;;;;;13.74;100.00;100170.16;5037359;28;20043;-84
2022/10/24 06:10:11;;;;;;;5.85;1.58;;;;;;;13.75;100.00;100174.56;5092499;28;20055;-84
2022/10/24 06:12:40;;;;;;;5.18;1.60;;;;;;;13.73;100.00;100177.22;5056953;28;20610;-84
2022/10/24 06:15:10;;;;;;;5.80;1.85;;;;;;;13.72;100.00;100171.97;5078081;28;20052;-84
2022/10/24 06:17:39;;;;;;;5.22;2.10;;;;;;;13.73;100.00;100186.97;5088002;28;20034;-84
2022/10/24 06:20:08;;;;;;;7.45;1.50;;;;;;;13.75;100.00;100182.50;5052666;28;20203;-83
2022/10/24 06:22:36;;;;;;;3.78;1.67;;;;;;;13.76;100.00;100181.59;5052699;28;20043;-84
2022/10/24 06:25:05;;;;;;;8.50;2.03;;;;;;;13.79;100.00;100182.38;5052534;28;20059;-84
2022/10/24 06:27:34;;;;;;;5.10;1.45;;;;;;;13.84;100.00;100184.97;5078453;28;20044;-83
2022/10/24 06:30:04;;;;;;;5.65;1.73;;;;;;;13.88;100.00;100175.19;5058561;28;20040;-86
2022/10/24 06:32:32;;;;;;;12.65;1.95;;;;;;;13.88;100.00;100176.03;5089125;28;20047;-84
2022/10/24 06:35:02;;;;;;;9.27;3.00;;;;;;;13.91;100.00;100185.69;5033235;28;20056;-84
2022/10/24 06:37:30;;;;;;;5.07;1.80;;;;;;;13.92;100.00;100177.72;5077167;28;20055;-84
2022/10/24 06:39:58;;;;;;;3.88;2.47;;;;;;;13.97;100.00;100186.44;5022744;28;20512;-82
2022/10/24 06:42:27;;;;;;;4.63;2.38;;;;;;;13.98;100.00;100182.88;5071770;28;20051;-84
2022/10/24 06:44:56;;;;;;;4.68;2.10;;;;;;;14.01;100.00;100188.13;5071019;28;20044;-84
2022/10/24 06:47:25;;;;;;;4.90;1.50;;;;;;;14.04;100.00;100188.06;5054627;28;21234;-85
2022/10/24 06:49:54;;;;;;;6.80;1.58;;;;;;;14.09;100.00;100184.44;5055927;28;20023;-85
2022/10/24 06:52:22;;;;;;;4.68;1.55;;;;;;;14.10;100.00;100181.75;5071981;28;20043;-85
2022/10/24 06:54:51;;;;;;;4.82;1.40;;;;;;;14.13;100.00;100189.63;5063338;28;20047;-85
2022/10/24 06:57:19;;;;;;;4.20;1.10;;;;;;;14.15;100.00;100190.47;5103119;28;20739;-85
2022/10/24 06:59:47;;;;;;;5.45;1.40;;;;;;;14.17;100.00;100193.94;5081332;28;20040;-86
2022/10/24 07:02:16;;;;;;;6.72;1.70;;;;;;;14.21;100.00;100192.09;5051646;27;20046;-87
2022/10/24 07:04:45;;;;;;;5.25;1.88;;;;;;;14.23;100.00;100195.59;5060811;28;20040;-86
2022/10/24 07:07:16;;;;;;;2.88;1.40;;;;;;;14.28;100.00;100203.44;5077783;28;20551;-86
2022/10/24 07:09:50;;;;;;;6.78;1.65;;;;;;;14.30;100.00;100205.16;5054275;28;20043;-87
2022/10/24 07:12:19;;;;;;;6.65;1.35;;;;;;;14.33;100.00;100205.09;5092151;28;20036;-86
2022/10/24 07:14:47;;;;;;;6.30;1.50;;;;;;;14.35;100.00;100203.28;5073475;28;20043;-87
2022/10/24 07:17:17;;;;;;;12.85;2.15;;;;;;;14.36;100.00;100209.44;5069230;28;20821;-86
2022/10/24 07:19:52;;;;;;;5.63;1.70;;;;;;;14.37;100.00;100214.72;5058169;28;20044;-86
2022/10/24 07:22:21;;;;;;;4.72;1.45;;;;;;;14.39;100.00;100212.03;5078110;28;20500;-86
2022/10/24 07:24:53;;;;;;;3.97;1.38;;;;;;;14.41;100.00;100211.06;5074303;28;20031;-86
2022/10/24 07:27:22;;;;;;;3.05;1.27;;;;;;;14.46;100.00;100221.59;5037955;27;20051;-86
2022/10/24 07:29:51;;;;;;;5.97;1.38;;;;;;;14.49;100.00;100216.19;5073631;28;20031;-85
2022/10/24 07:32:20;;;;;;;3.42;1.50;;;;;;;14.55;100.00;100215.19;5062769;27;23498;-85
2022/10/24 07:34:48;;;;;;;5.70;1.50;;;;;;;14.60;100.00;100214.22;5076533;28;20389;-86
2022/10/24 07:37:17;;;;;;;4.60;1.48;;;;;;;14.63;100.00;100205.34;5072310;28;20043;-85
2022/10/24 07:39:46;;;;;;;4.38;1.70;;;;;;;14.65;100.00;100219.44;5074034;28;20046;-86
2022/10/24 07:42:15;;;;;;;6.38;1.73;;;;;;;14.67;100.00;100207.00;5065637;28;20252;-85
2022/10/24 07:44:46;;;;;;;4.47;1.83;;;;;;;14.72;100.00;100218.34;5079932;28;20047;-86
2022/10/24 07:47:16;;;;;;;3.35;1.50;;;;;;;14.76;100.00;100205.88;5079594;28;20044;-84
2022/10/24 07:49:44;;;;;;;5.57;1.92;;;;;;;14.78;100.00;100218.22;5081782;28;20031;-85
2022/10/24 07:52:13;;;;;;;3.30;1.38;;;;;;;14.82;100.00;100203.97;5046273;28;20673;-84
2022/10/24 07:54:41;;;;;;;3.90;1.58;;;;;;;14.87;100.00;100202.97;5053441;28;20035;-84
2022/10/24 07:57:09;;;;;;;7.13;1.48;;;;;;;14.91;100.00;100197.53;5088123;28;20255;-84
2022/10/24 07:59:38;;;;;;;4.43;1.13;;;;;;;14.97;100.00;100199.16;5066922;28;20037;-84
2022/10/24 08:02:11;;;;;;;4.18;1.55;;;;;;;15.00;100.00;100199.97;5056359;27;23289;-85
2022/10/24 08:04:40;;;;;;;3.63;1.33;;;;;;;15.05;100.00;100199.88;5074697;28;20051;-85
2022/10/24 08:07:13;;;;;;;5.70;1.50;;;;;;;15.13;100.00;100203.19;5077073;28;20449;-84
2022/10/24 08:09:46;;;;;;;4.65;1.70;;;;;;;15.19;100.00;100200.38;5061591;28;20028;-85
2022/10/24 08:12:14;;;;;;;4.35;1.70;;;;;;;15.26;100.00;100186.97;5094618;27;20540;-84
2022/10/24 08:14:43;;;;;;;8.65;1.58;;;;;;;15.29;100.00;100187.75;5032529;28;20036;-84
2022/10/24 08:17:12;;;;;;;5.57;1.55;;;;;;;15.35;100.00;100181.41;5077276;28;20051;-84
2022/10/24 08:19:41;;;;;;;6.30;2.13;;;;;;;15.38;100.00;100186.59;5080898;28;20028;-84
2022/10/24 08:22:12;;;;;;;4.53;1.58;;;;;;;15.42;100.00;100185.59;5063922;28;20036;-85
2022/10/24 08:24:42;;;;;;;4.57;1.67;;;;;;;15.49;100.00;100173.06;5082849;28;20080;-85
2022/10/24 08:27:11;;;;;;;5.05;1.88;;;;;;;15.55;100.00;100173.72;5105368;27;20051;-85
2022/10/24 08:29:39;;;;;;;7.45;1.92;;;;;;;15.63;100.00;100175.31;5054878;28;20070;-85
2022/10/24 08:32:08;;;;;;;8.90;1.73;;;;;;;15.65;100.00;100184.09;5079760;28;20070;-85
2022/10/24 08:34:37;;;;;;;4.03;1.42;;;;;;;15.70;100.00;100188.38;5066687;28;20042;-86
2022/10/24 08:37:05;;;;;;;4.70;1.63;;;;;;;15.77;100.00;100174.03;5048308;28;20051;-85
2022/10/24 08:39:34;;;;;;;6.10;1.88;;;;;;;15.84;100.00;100190.69;5067821;27;20040;-85
2022/10/24 08:42:07;;;;;;;6.30;1.58;;;;;;;15.88;100.00;100191.44;5050785;28;20039;-85
2022/10/24 08:44:39;;;;;;;6.30;1.55;;;;;;;15.88;100.00;100197.63;5070526;28;20663;-85
2022/10/24 08:47:26;;;;;;;7.35;2.00;;;;;;;15.91;100.00;100192.22;5094896;28;20042;-85
2022/10/24 08:50:10;;;;;;;8.95;2.00;;;;;;;16.01;100.00;100187.53;5085966;28;20040;-85
2022/10/24 08:53:01;;;;;;;7.70;1.42;;;;;;;16.08;100.00;100188.19;5080473;28;20532;-85
2022/10/24 08:55:46;;;;;;;5.20;1.63;;;;;;;16.04;100.00;100203.38;5065332;27;20489;-85
2022/10/24 08:58:23;;;;;;;4.38;1.48;;;;;;;15.95;100.00;100196.56;5075600;28;20493;-86
2022/10/24 09:00:55;;;;;;;4.32;1.30;;;;;;;15.90;100.00;100206.44;5043623;28;20044;-85
2022/10/24 09:03:47;;;;;;;4.50;1.23;;;;;;;15.82;100.00;100207.56;5099654;28;20389;-85
2022/10/24 09:06:29;;;;;;;4.22;1.65;;;;;;;15.76;100.00;100213.91;5096994;27;20054;-85
2022/10/24 09:09:15;;;;;;;5.25;1.65;;;;;;;15.71;100.00;100229.09;5089796;28;20047;-85
2022/10/24 09:12:12;;;;;;;6.20;1.58;;;;;;;15.62;100.00;100224.91;5085943;27;20035;-86
2022/10/24 09:14:44;;;;;;;5.68;1.60;;;;;;;15.52;100.00;100216.31;5091736;28;20052;-85
2022/10/24 09:17:28;;;;;;;3.42;1.30;;;;;;;15.38;100.00;100218.47;5095485;28;20048;-85
2022/10/24 09:20:24;;;;;;;6.28;1.55;;;;;;;15.26;100.00;100216.16;5090483;28;20378;-85
2022/10/24 09:22:56;;;;;;;4.68;1.42;;;;;;;15.18;100.00;100216.34;5076354;28;20032;-85
2022/10/24 09:25:30;;;;;;;6.65;1.40;;;;;;;15.12;100.00;100222.69;5087904;28;20036;-85
2022/10/24 09:28:05;;;;;;;9.60;1.67;;;;;;;15.06;100.00;100219.31;5075824;28;20050;-85
2022/10/24 09:30:36;;;;;;;7.25;1.35;;;;;;;15.04;100.00;100218.47;5054018;28;20452;-85
2022/10/24 09:33:32;;;;;;;2.50;1.15;;;;;;;15.04;100.00;100224.66;5061936;28;20454;-85
2022/10/24 09:36:03;;;;;;;5.60;1.48;;;;;;;15.08;100.00;100220.13;5091913;28;20488;-85
2022/10/24 09:38:36;;;;;;;5.47;1.17;;;;;;;15.11;100.00;100226.25;5091063;28;20040;-85
2022/10/24 09:41:17;;;;;;;4.63;1.45;;;;;;;15.14;100.00;100230.59;5084583;27;20040;-85
2022/10/24 09:43:58;;;;;;;9.05;1.80;;;;;;;15.16;100.00;100227.00;5062705;28;20043;-85
2022/10/24 09:46:44;;;;;;;6.07;1.48;;;;;;;15.17;100.00;100236.69;5065258;28;20036;-85
2022/10/24 09:49:15;;;;;;;4.35;1.48;;;;;;;15.18;100.00;100232.28;5074009;28;20045;-85
2022/10/24 09:52:06;;;;;;;3.08;1.33;;;;;;;15.17;100.00;100230.53;5077272;28;20039;-85
2022/10/24 09:54:35;;;;;;;9.05;1.20;;;;;;;15.13;100.00;100240.34;5061198;28;20251;-84
2022/10/24 09:57:13;;;;;;;7.03;1.52;;;;;;;15.11;100.00;100246.59;5085292;28;20400;-85
2022/10/24 09:59:59;;;;;;;9.80;1.58;;;;;;;15.10;100.00;100251.00;5090264;28;20929;-85
2022/10/24 10:02:33;;;;;;;4.63;1.42;;;;;;;15.13;100.00;100263.34;5066273;28;20031;-80
2022/10/24 10:05:04;;;;;;;8.23;2.10;;;;;;;15.26;100.00;100250.66;5096180;28;20496;-84
2022/10/24 10:07:47;;;;;;;7.78;1.42;;;;;;;15.42;100.00;100267.06;5053821;28;20565;-84
2022/10/24 10:10:36;;;;;;;3.85;1.30;;;;;;;15.49;100.00;100256.22;5091624;28;20043;-84
2022/10/24 10:13:14;;;;;;;2.90;1.27;;;;;;;15.53;100.00;100257.03;5085434;28;20048;-84
2022/10/24 10:15:42;;;;;;;8.55;1.70;;;;;;;15.55;100.00;100252.53;5053360;28;20173;-85
2022/10/24 10:18:24;;;;;;;4.10;1.60;;;;;;;15.58;100.00;100250.66;5089636;28;20040;-85
2022/10/24 10:21:05;;;;;;;5.50;1.45;;;;;;;15.63;100.00;100260.28;5093685;28;20039;-84
2022/10/24 10:24:00;;;;;;;;;;;;;;;15.69;100.00;100263.66;5068083;28;20036;-84
2022/10/24 10:26:44;;;;;;;10.23;1.40;;;;;;;15.74;100.00;100268.88;5060376;28;19920;-85
2022/10/24 10:29:16;;;;;;;7.38;1.90;;;;;;;15.77;100.00;100274.13;5084581;28;20035;-84
2022/10/24 10:31:49;;;;;;;5.32;1.50;;;;;;;15.78;100.00;100276.75;5076611;28;20040;-84
2022/10/24 10:34:37;;;;;;;4.53;1.33;;;;;;;15.83;100.00;100284.56;5067883;28;20047;-84
2022/10/24 10:37:23;;;;;;;5.03;1.35;;;;;;;15.86;100.00;100284.50;5092991;28;20048;-83
2022/10/24 10:40:15;;;;;;;2.55;1.20;;;;;;;15.85;100.00;100290.72;5095713;28;20263;-84
2022/10/24 10:43:02;;;;;;;6.10;1.50;;;;;;;15.79;100.00;100290.88;5108877;28;20340;-85
2022/10/24 10:45:39;;;;;;;5.20;1.30;;;;;;;15.77;100.00;100284.75;5082405;28;20043;-84
2022/10/24 10:48:45;;;;;;;5.70;1.60;;;;;;;15.78;100.00;100281.16;5062734;28;20044;-84
2022/10/24 10:51:46;;;;;;;5.18;1.15;;;;;;;15.82;100.00;100287.25;5074109;28;20393;-85
2022/10/24 10:54:30;;;;;;;4.15;1.30;;;;;;;15.81;100.00;100291.72;5080996;28;20036;-85
2022/10/24 10:57:05;;;;;;;5.05;1.50;;;;;;;15.81;100.00;100286.41;5071853;28;20051;-83
2022/10/24 10:59:56;;;;;;;7.38;1.20;;;;;;;15.78;100.00;100298.00;5084799;28;20343;-84
2022/10/24 11:02:54;;;;;;;5.72;1.60;;;;;;;15.75;100.00;100329.94;5060607;28;20032;-84
2022/10/24 11:05:51;;;;;;;7.78;2.22;;;;;;;15.58;100.00;100314.41;5066606;28;20051;-86
2022/10/24 11:08:45;;;;;;;8.52;1.60;;;;;;;15.37;100.00;100302.56;5077188;28;20044;-84
2022/10/24 11:11:23;;;;;;;6.85;1.40;;;;;;;15.19;100.00;100314.50;5086568;28;20501;-84
2022/10/24 11:14:00;;;;;;;4.55;1.30;;;;;;;15.08;100.00;100305.91;5083024;28;20047;-85
2022/10/24 11:16:30;;;;;;;9.15;1.85;;;;;;;14.99;100.00;100312.34;5074782;28;20048;-85
2022/10/24 11:19:04;;;;;;;6.68;1.30;;;;;;;15.00;100.00;100308.75;5052021;28;20055;-84
2022/10/24 11:21:34;;;;;;;4.03;1.10;;;;;;;15.01;100.00;100305.19;5071172;28;20240;-84
2022/10/24 11:24:10;;;;;;;7.82;1.42;;;;;;;15.07;100.00;100317.44;5094576;28;20059;-83
2022/10/24 11:27:20;;;;;;;6.13;1.73;;;;;;;15.26;100.00;100307.25;5076602;28;20044;-86
2022/10/24 11:30:06;;;;;;;3.97;1.40;;;;;;;15.38;100.00;100320.22;5086339;28;20168;-85
2022/10/24 11:33:01;;;;;;;4.22;1.50;;;;;;;15.47;100.00;100300.53;5067739;28;20074;-85
2022/10/24 11:35:33;;;;;;;5.70;1.30;;;;;;;15.54;100.00;100310.09;5052129;28;20153;-85
2022/10/24 11:38:15;;;;;;;5.82;1.70;;;;;;;15.62;100.00;100320.50;5096952;28;20039;-85
2022/10/24 11:40:47;;;;;;;7.35;1.30;;;;;;;15.63;100.00;100322.25;5057285;28;20040;-86
2022/10/24 11:43:26;;;;;;;6.43;1.48;;;;;;;15.63;100.00;100321.38;5076567;28;20036;-84
2022/10/24 11:46:09;;;;;;;6.10;1.30;;;;;;;15.62;100.00;100338.25;5069588;28;20061;-84
2022/10/24 11:48:40;;;;;;;3.38;1.05;;;;;;;15.59;100.00;100324.13;5095349;28;20044;-84